Time;durP1;ratioP1;P1;durP2;ratioP2;P2;SDS_P1;SDS_P2;PMS_P1;PMS_P2;Temp;Humidity;BMP_temperature;BMP_pressure;BME280_temperature;BME280_humidity;BME280_pressure;Samples;Min_cycle;Max_cycle;Signal;HPM_P1;HPM_P2
2021/07/25 00:01:13;;;;;;;;;4.75;3.75;;;;;25.29;46.92;100283.22;5078863;28;45672;-48
2021/07/25 00:03:38;;;;;;;;;3.00;2.75;;;;;25.29;46.79;100283.22;5079047;28;45625;-48
2021/07/25 00:06:04;;;;;;;;;3.75;3.75;;;;;25.30;46.88;100282.22;5078320;27;46128;-49
2021/07/25 00:08:29;;;;;;;;;7.25;4.00;;;;;25.30;46.71;100281.41;5078269;27;45275;-47
2021/07/25 00:10:57;;;;;;;;;3.00;3.00;;;;;25.31;46.98;100285.72;5078553;28;45216;-48
2021/07/25 00:13:22;;;;;;;;;3.00;3.00;;;;;25.33;46.61;100286.44;5078520;28;45513;-49
2021/07/25 00:15:47;;;;;;;;;3.25;3.25;;;;;25.31;46.90;100281.25;5078223;28;45398;-50
2021/07/25 00:18:13;;;;;;;;;3.00;3.00;;;;;25.30;46.95;100278.75;5078066;27;45391;-50
2021/07/25 00:20:39;;;;;;;;;3.75;3.00;;;;;25.29;47.17;100282.34;5078655;28;45334;-47
2021/07/25 00:23:05;;;;;;;;;2.50;2.00;;;;;25.27;46.93;100279.84;5078407;28;45490;-51
2021/07/25 00:25:32;;;;;;;;;4.00;4.00;;;;;25.27;46.99;100279.84;5077879;27;46261;-50
2021/07/25 00:27:57;;;;;;;;;4.25;3.75;;;;;25.25;47.12;100276.47;5077842;27;45968;-49
2021/07/25 00:30:24;;;;;;;;;1.00;1.00;;;;;25.26;47.26;100275.50;5078140;28;45371;-48
2021/07/25 00:32:50;;;;;;;;;2.75;2.25;;;;;25.27;46.99;100274.53;5077496;28;45439;-48
2021/07/25 00:35:19;;;;;;;;;2.00;2.00;;;;;25.24;46.87;100277.44;5077872;28;45607;-48
2021/07/25 00:37:48;;;;;;;;;2.75;2.75;;;;;25.24;46.85;100273.97;5077927;28;45293;-50
2021/07/25 00:40:34;;;;;;;;;4.75;3.25;;;;;25.23;47.23;100273.13;5078059;28;45303;-51
2021/07/25 00:43:00;;;;;;;;;3.00;1.75;;;;;25.24;47.07;100266.84;5078107;28;45239;-50
2021/07/25 00:45:25;;;;;;;;;2.25;2.25;;;;;25.26;47.03;100262.25;5077161;28;58575;-51
2021/07/25 00:47:50;;;;;;;;;3.00;3.00;;;;;25.25;46.59;100257.06;5077215;28;59062;-51
2021/07/25 00:50:16;;;;;;;;;3.00;3.00;;;;;25.26;46.49;100264.91;5077717;28;45166;-49
2021/07/25 00:52:42;;;;;;;;;1.00;1.00;;;;;25.25;46.63;100260.56;5078091;27;45575;-52
2021/07/25 00:55:08;;;;;;;;;1.75;1.75;;;;;25.23;47.01;100267.81;5077663;28;46557;-48
2021/07/25 00:57:34;;;;;;;;;2.00;2.00;;;;;25.24;46.90;100263.38;5077572;28;45418;-52
2021/07/25 00:59:59;;;;;;;;;2.50;2.50;;;;;25.25;46.99;100260.56;5077738;27;45320;-49
2021/07/25 01:02:32;;;;;;;;;4.00;2.00;;;;;25.26;46.84;100251.66;5077779;28;45455;-48
2021/07/25 01:05:11;;;;;;;;;2.75;2.00;;;;;25.25;46.45;100247.31;5077462;28;45363;-48
2021/07/25 01:08:07;;;;;;;;;3.75;2.00;;;;;25.22;47.02;100255.50;5077385;28;45686;-50
2021/07/25 01:10:33;;;;;;;;;2.50;2.50;;;;;25.21;46.65;100237.09;5077401;28;45189;-52
2021/07/25 01:13:07;;;;;;;;;2.50;1.00;;;;;25.21;46.78;100248.53;5077434;28;45565;-48
2021/07/25 01:15:33;;;;;;;;;3.00;1.75;;;;;25.21;46.79;100248.53;5077244;28;46183;-48
2021/07/25 01:17:59;;;;;;;;;4.00;3.00;;;;;25.23;46.94;100251.06;5075976;28;45548;-50
2021/07/25 01:20:25;;;;;;;;;1.75;1.75;;;;;25.23;46.60;100245.75;5077300;28;45441;-49
2021/07/25 01:22:52;;;;;;;;;3.00;3.00;;;;;25.23;46.39;100241.28;5077492;28;45546;-51
2021/07/25 01:25:21;;;;;;;;;2.50;2.50;;;;;25.23;46.98;100245.75;5076948;28;46425;-50
2021/07/25 01:27:50;;;;;;;;;3.00;3.00;;;;;25.21;46.61;100242.41;5076963;27;45518;-51
2021/07/25 01:30:19;;;;;;;;;1.50;1.00;;;;;25.21;46.92;100247.69;5077347;28;45493;-47
2021/07/25 01:32:45;;;;;;;;;3.00;3.00;;;;;25.19;46.73;100250.47;5077288;28;45367;-50
2021/07/25 01:35:14;;;;;;;;;2.00;2.00;;;;;25.18;46.63;100243.50;5077234;28;47197;-50
2021/07/25 01:37:40;;;;;;;;;2.75;2.50;;;;;25.18;46.63;100254.13;5076974;28;45590;-52
2021/07/25 01:40:17;;;;;;;;;3.25;2.00;;;;;25.15;46.78;100254.38;5077238;28;45361;-46
2021/07/25 01:42:43;;;;;;;;;3.75;3.00;;;;;25.13;46.83;100251.84;5077410;28;45572;-51
2021/07/25 01:45:09;;;;;;;;;2.25;2.25;;;;;25.10;47.37;100249.44;5075539;28;46458;-50
2021/07/25 01:47:36;;;;;;;;;1.75;1.75;;;;;25.10;47.32;100251.25;5076782;28;45378;-52
2021/07/25 01:50:02;;;;;;;;;2.00;2.00;;;;;25.09;46.78;100249.56;5076914;28;45306;-52
2021/07/25 01:52:27;;;;;;;;;3.00;3.00;;;;;25.06;47.33;100250.66;5076868;28;45632;-47
2021/07/25 01:54:52;;;;;;;;;3.75;2.00;;;;;25.07;47.69;100246.22;5076642;28;45342;-48
2021/07/25 01:57:18;;;;;;;;;3.00;2.00;;;;;25.05;47.29;100250.81;5076636;28;45378;-51
2021/07/25 01:59:43;;;;;;;;;4.00;3.25;;;;;25.01;47.88;100252.88;5076998;27;45400;-47
2021/07/25 02:02:08;;;;;;;;;3.75;2.00;;;;;24.99;47.52;100239.72;5076777;27;45513;-47
2021/07/25 02:04:34;;;;;;;;;2.00;2.00;;;;;25.01;47.73;100245.75;5076379;28;46151;-49
2021/07/25 02:06:59;;;;;;;;;2.25;2.25;;;;;25.00;47.45;100246.72;5076543;28;45420;-50
2021/07/25 02:09:26;;;;;;;;;2.25;2.25;;;;;25.00;47.43;100237.94;5076621;28;45153;-48
2021/07/25 02:11:51;;;;;;;;;2.50;2.50;;;;;24.98;48.09;100237.22;5076752;28;45242;-49
2021/07/25 02:14:16;;;;;;;;;1.75;1.75;;;;;24.93;47.88;100234.09;5076590;28;45521;-51
2021/07/25 02:16:42;;;;;;;;;4.50;4.00;;;;;24.92;47.65;100238.56;5076466;28;45911;-49
2021/07/25 02:19:07;;;;;;;;;3.75;3.75;;;;;24.91;47.59;100236.91;5076623;28;45546;-53
2021/07/25 02:21:32;;;;;;;;;3.00;2.75;;;;;24.88;48.01;100231.00;5076776;28;45454;-49
2021/07/25 02:23:57;;;;;;;;;3.25;3.00;;;;;24.88;47.72;100233.66;5076165;28;46244;-53
2021/07/25 02:26:23;;;;;;;;;3.50;2.00;;;;;24.86;48.26;100223.16;5074772;27;45433;-50
2021/07/25 02:28:48;;;;;;;;;2.00;2.00;;;;;24.86;47.99;100225.81;5076463;28;45365;-50
2021/07/25 02:31:13;;;;;;;;;3.75;2.50;;;;;24.87;47.96;100219.56;5076775;27;45560;-49
2021/07/25 02:33:39;;;;;;;;;4.25;3.25;;;;;24.88;48.42;100228.38;5076125;28;46286;-48
2021/07/25 02:36:04;;;;;;;;;3.25;3.25;;;;;24.88;47.71;100237.16;5076028;27;45396;-49
2021/07/25 02:38:29;;;;;;;;;3.50;3.25;;;;;24.89;47.87;100220.28;5076183;28;45360;-47
2021/07/25 02:40:55;;;;;;;;;3.00;3.00;;;;;24.89;47.88;100228.22;5076499;28;45253;-49
2021/07/25 02:43:20;;;;;;;;;3.50;2.75;;;;;24.90;48.34;100221.97;5076153;28;45422;-49
2021/07/25 02:45:45;;;;;;;;;1.50;1.50;;;;;24.91;47.81;100221.00;5076439;27;45273;-48
2021/07/25 02:48:11;;;;;;;;;2.00;2.00;;;;;24.90;48.36;100219.31;5076230;28;45293;-50
2021/07/25 02:50:36;;;;;;;;;2.25;2.25;;;;;24.89;47.96;100222.94;5076198;28;45557;-49
2021/07/25 02:53:01;;;;;;;;;3.00;3.00;;;;;24.87;48.32;100219.56;5075811;27;45261;-51
2021/07/25 02:55:27;;;;;;;;;5.00;2.50;;;;;24.85;48.59;100221.53;5077085;27;45240;-51
2021/07/25 02:57:52;;;;;;;;;3.25;3.00;;;;;24.84;48.72;100219.84;5079524;28;45350;-50
2021/07/25 03:00:18;;;;;;;;;3.00;3.00;;;;;24.83;48.39;100218.16;5080029;27;45540;-50
2021/07/25 03:02:43;;;;;;;;;3.50;3.00;;;;;24.83;48.47;100218.16;5079115;28;45445;-47
2021/07/25 03:05:09;;;;;;;;;4.00;3.00;;;;;24.84;48.87;100222.47;5079329;28;45331;-51
2021/07/25 03:07:34;;;;;;;;;4.75;2.00;;;;;24.83;48.62;100218.16;5079515;28;45719;-50
2021/07/25 03:10:00;;;;;;;;;3.00;2.00;;;;;24.80;48.77;100211.31;5079663;28;45451;-51
2021/07/25 03:12:25;;;;;;;;;4.00;4.00;;;;;24.77;48.68;100222.16;5079077;27;45331;-51
2021/07/25 03:14:51;;;;;;;;;4.50;3.00;;;;;24.74;48.82;100213.63;5079136;28;45239;-47
2021/07/25 03:17:16;;;;;;;;;3.50;3.00;;;;;24.69;49.26;100214.00;5079657;27;45372;-49
2021/07/25 03:19:42;;;;;;;;;4.00;2.50;;;;;24.69;49.32;100206.06;5079488;28;45536;-52
2021/07/25 03:22:09;;;;;;;;;4.50;3.00;;;;;24.67;49.45;100214.09;5079067;28;45956;-50
2021/07/25 03:24:35;;;;;;;;;5.00;4.25;;;;;24.64;49.49;100202.91;5079068;28;45836;-51
2021/07/25 03:27:00;;;;;;;;;2.50;2.25;;;;;24.61;49.59;100197.84;5078985;28;45418;-51
2021/07/25 03:29:26;;;;;;;;;7.75;4.00;;;;;24.59;49.72;100203.28;5078052;28;45619;-52
2021/07/25 03:31:51;;;;;;;;;3.25;1.50;;;;;24.60;49.24;100207.63;5078551;28;46150;-47
2021/07/25 03:34:16;;;;;;;;;3.50;3.00;;;;;24.59;49.62;100205.09;5079236;28;45252;-50
2021/07/25 03:36:45;;;;;;;;;4.00;3.00;;;;;24.59;49.80;100205.09;5078935;28;45395;-50
2021/07/25 03:39:17;;;;;;;;;5.75;4.50;;;;;24.59;49.65;100195.34;5079229;27;45629;-50
2021/07/25 03:41:42;;;;;;;;;3.25;2.00;;;;;24.57;50.19;100197.28;5077388;28;47082;-48
2021/07/25 03:44:08;;;;;;;;;4.25;3.00;;;;;24.56;49.84;100192.94;5078697;28;45258;-53
2021/07/25 03:46:33;;;;;;;;;4.50;4.50;;;;;24.56;50.01;100195.59;5078766;27;45426;-50
2021/07/25 03:48:59;;;;;;;;;5.00;3.50;;;;;24.54;49.63;100187.78;5078923;28;45305;-50
2021/07/25 03:51:25;;;;;;;;;3.75;2.25;;;;;24.51;49.62;100189.84;5078540;28;45267;-51
2021/07/25 03:53:50;;;;;;;;;3.00;3.00;;;;;24.48;49.64;100193.56;5078842;28;45291;-52
2021/07/25 03:56:19;;;;;;;;;6.00;3.50;;;;;24.47;49.77;100185.75;5078646;27;45308;-46
2021/07/25 03:58:44;;;;;;;;;3.25;3.25;;;;;24.45;50.18;100185.91;5078712;28;45483;-51
2021/07/25 04:01:09;;;;;;;;;2.50;2.00;;;;;24.48;49.89;100190.91;5077779;28;63326;-48
2021/07/25 04:03:35;;;;;;;;;5.75;3.00;;;;;24.50;50.16;100196.09;5078322;28;45449;-50
2021/07/25 04:06:00;;;;;;;;;3.00;3.00;;;;;24.48;49.72;100192.75;5060232;28;45462;-52
2021/07/25 04:08:25;;;;;;;;;2.75;2.00;;;;;24.48;49.76;100187.44;5077560;27;45398;-51
2021/07/25 04:10:51;;;;;;;;;4.00;3.00;;;;;24.49;50.29;100183.81;5078518;28;46133;-52
2021/07/25 04:13:17;;;;;;;;;6.25;3.25;;;;;24.49;50.13;100183.81;5078327;27;45340;-48
2021/07/25 04:15:45;;;;;;;;;5.00;3.25;;;;;24.49;49.72;100186.47;5078316;28;45472;-50
2021/07/25 04:18:10;;;;;;;;;3.00;3.00;;;;;24.48;49.99;100192.75;5078507;28;45486;-47
2021/07/25 04:20:36;;;;;;;;;4.00;4.00;;;;;24.48;49.99;100187.44;5078091;27;45986;-50
2021/07/25 04:23:02;;;;;;;;;4.00;4.00;;;;;24.48;50.03;100184.78;5078056;28;45255;-48
2021/07/25 04:25:29;;;;;;;;;3.50;3.50;;;;;24.48;50.24;100184.78;5078137;28;45316;-47
2021/07/25 04:27:56;;;;;;;;;4.25;2.75;;;;;24.48;49.96;100184.78;5093728;27;45536;-48
2021/07/25 04:30:22;;;;;;;;;3.25;3.25;;;;;24.46;50.50;100181.41;5078261;28;46206;-46
2021/07/25 04:32:48;;;;;;;;;5.00;4.00;;;;;24.45;50.51;100192.97;5077815;28;45614;-50
2021/07/25 04:35:16;;;;;;;;;5.00;4.00;;;;;24.40;50.16;100185.41;5078146;28;45216;-54
2021/07/25 04:37:48;;;;;;;;;3.75;3.75;;;;;24.39;50.15;100187.25;5078116;28;45281;-49
2021/07/25 04:40:15;;;;;;;;;4.50;4.50;;;;;24.37;50.17;100186.53;5077735;28;46306;-51
2021/07/25 04:42:50;;;;;;;;;2.75;2.75;;;;;24.34;50.56;100186.75;5077651;28;45321;-47
2021/07/25 04:45:24;;;;;;;;;3.75;3.75;;;;;24.33;50.60;100192.19;5077880;28;45233;-48
2021/07/25 04:47:55;;;;;;;;;5.25;3.50;;;;;24.31;50.63;100187.00;5060120;28;45276;-51
2021/07/25 04:50:28;;;;;;;;;3.25;2.75;;;;;24.31;50.27;100191.47;5093626;27;48229;-52
2021/07/25 04:53:00;;;;;;;;;3.75;3.25;;;;;24.30;50.31;100195.94;5077966;28;45810;-48
2021/07/25 04:55:31;;;;;;;;;3.00;2.75;;;;;24.30;50.66;100193.28;5077850;28;45322;-48
2021/07/25 04:58:05;;;;;;;;;6.75;4.25;;;;;24.31;50.55;100197.59;5077859;27;45426;-50
2021/07/25 05:00:32;;;;;;;;;3.00;3.00;;;;;24.29;50.75;100194.25;5077570;28;47065;-51
2021/07/25 05:03:05;;;;;;;;;3.00;3.00;;;;;24.28;50.36;100208.47;5077523;28;45678;-48
2021/07/25 05:05:31;;;;;;;;;5.00;3.00;;;;;24.27;50.56;100200.63;5077512;28;45422;-48
2021/07/25 05:08:00;;;;;;;;;4.75;3.25;;;;;24.27;50.92;100200.63;5077672;28;45450;-50
2021/07/25 05:10:26;;;;;;;;;4.00;3.50;;;;;24.25;50.56;100198.13;5076985;27;45260;-45
2021/07/25 05:12:58;;;;;;;;;4.00;2.50;;;;;24.26;50.79;100205.09;5059381;28;45363;-47
2021/07/25 05:15:30;;;;;;;;;3.75;3.75;;;;;24.27;50.48;100209.44;5077692;27;45517;-51
2021/07/25 05:18:00;;;;;;;;;4.25;3.75;;;;;24.29;50.72;100204.00;5077566;28;45425;-49
2021/07/25 05:20:31;;;;;;;;;3.75;3.00;;;;;24.29;50.87;100210.16;5076887;28;45427;-47
2021/07/25 05:23:06;;;;;;;;;5.75;4.75;;;;;24.19;51.44;100203.91;5077181;28;46105;-49
2021/07/25 05:25:32;;;;;;;;;5.00;4.25;;;;;24.08;51.33;100205.63;5077342;28;45356;-50
2021/07/25 05:28:01;;;;;;;;;2.00;2.00;;;;;24.01;52.01;100206.25;5077144;28;45604;-47
2021/07/25 05:30:27;;;;;;;;;5.00;5.00;;;;;23.89;52.07;100215.97;5077204;28;46661;-46
2021/07/25 05:32:55;;;;;;;;;2.50;1.50;;;;;23.78;52.27;100215.00;5077296;27;45792;-48
2021/07/25 05:35:20;;;;;;;;;6.25;3.50;;;;;23.69;52.61;100207.81;5076990;28;45473;-52
2021/07/25 05:37:46;;;;;;;;;3.50;3.50;;;;;23.60;52.85;100203.25;5077219;28;45596;-48
2021/07/25 05:40:13;;;;;;;;;5.25;5.25;;;;;23.52;52.99;100206.47;5076823;28;45824;-51
2021/07/25 05:42:39;;;;;;;;;3.00;3.00;;;;;23.49;52.63;100205.88;5076826;28;45735;-48
2021/07/25 05:45:09;;;;;;;;;5.00;3.50;;;;;23.44;53.17;100198.31;5077041;28;45256;-49
2021/07/25 05:47:35;;;;;;;;;7.00;4.75;;;;;23.44;52.89;100195.66;5077066;28;45351;-48
2021/07/25 05:50:00;;;;;;;;;4.00;4.00;;;;;23.45;52.85;100190.25;5076715;28;46089;-48
2021/07/25 05:52:26;;;;;;;;;4.75;3.75;;;;;23.46;53.08;100191.09;5076918;28;45303;-46
2021/07/25 05:54:51;;;;;;;;;6.00;4.00;;;;;23.39;52.89;100190.72;5076893;28;45302;-47
2021/07/25 05:57:16;;;;;;;;;3.25;3.25;;;;;23.34;53.17;100187.59;5077011;28;45404;-46
2021/07/25 05:59:42;;;;;;;;;4.00;3.50;;;;;23.34;53.34;100182.31;5075997;28;46092;-45
2021/07/25 06:02:07;;;;;;;;;4.25;3.75;;;;;23.34;53.31;100192.06;5076098;28;58020;-46
2021/07/25 06:04:32;;;;;;;;;3.00;3.00;;;;;23.30;53.20;100192.28;5058605;28;45290;-47
2021/07/25 06:06:58;;;;;;;;;6.50;4.00;;;;;23.31;53.24;100191.31;5077115;28;45486;-47
2021/07/25 06:09:24;;;;;;;;;4.50;4.50;;;;;23.30;53.34;100191.47;5076816;28;46113;-46
2021/07/25 06:11:50;;;;;;;;;3.75;3.50;;;;;23.28;53.45;100210.06;5076375;27;45399;-48
2021/07/25 06:14:15;;;;;;;;;3.75;3.75;;;;;23.29;53.27;100201.19;5076599;28;45260;-49
2021/07/25 06:16:41;;;;;;;;;4.25;3.75;;;;;23.28;53.43;100198.66;5076803;28;45228;-45
2021/07/25 06:19:06;;;;;;;;;6.75;4.00;;;;;23.25;53.47;100197.09;5076302;28;46560;-48
2021/07/25 06:21:31;;;;;;;;;3.00;3.00;;;;;23.28;53.42;100206.59;5076390;28;45369;-47
2021/07/25 06:23:57;;;;;;;;;5.75;4.00;;;;;23.31;53.24;100203.72;5076798;28;45605;-46
2021/07/25 06:26:23;;;;;;;;;3.75;3.50;;;;;23.35;53.61;100191.09;5076387;28;45376;-44
2021/07/25 06:28:49;;;;;;;;;5.75;4.00;;;;;23.35;53.55;100199.84;5076225;28;45374;-47
2021/07/25 06:31:15;;;;;;;;;5.50;4.25;;;;;23.37;53.13;100197.13;5078654;28;45780;-49
2021/07/25 06:33:40;;;;;;;;;4.75;3.00;;;;;23.43;53.06;100207.19;5079884;28;45323;-46
2021/07/25 06:36:10;;;;;;;;;4.50;4.50;;;;;23.46;52.82;100202.50;5080238;28;45308;-47
2021/07/25 06:38:37;;;;;;;;;7.75;7.25;;;;;23.44;52.67;100203.59;5079712;28;47032;-48
2021/07/25 06:41:02;;;;;;;;;8.50;5.75;;;;;23.39;53.05;100193.38;5079669;27;45354;-46
2021/07/25 06:43:27;;;;;;;;;4.25;4.25;;;;;23.36;52.88;100196.25;5080103;27;45420;-46
2021/07/25 06:45:53;;;;;;;;;5.75;5.00;;;;;23.42;52.87;100205.50;5079865;28;45306;-46
2021/07/25 06:48:24;;;;;;;;;7.25;6.50;;;;;23.40;52.45;100200.34;5079511;28;46164;-48
2021/07/25 06:50:52;;;;;;;;;5.25;5.25;;;;;23.40;52.62;100203.00;5079664;28;45295;-47
2021/07/25 06:53:19;;;;;;;;;6.00;4.25;;;;;23.45;52.76;100206.13;5079538;28;45541;-51
2021/07/25 06:55:46;;;;;;;;;6.25;6.25;;;;;23.51;52.46;100210.09;5079677;27;45395;-46
2021/07/25 06:58:11;;;;;;;;;7.00;5.25;;;;;23.52;52.29;100211.78;5078668;27;46570;-51
2021/07/25 07:00:37;;;;;;;;;5.75;5.00;;;;;23.54;52.89;100206.34;5079542;28;45403;-46
2021/07/25 07:03:02;;;;;;;;;9.00;6.00;;;;;23.51;52.29;100211.91;5079529;28;45438;-46
2021/07/25 07:05:31;;;;;;;;;7.50;7.25;;;;;23.50;52.50;100210.22;5080023;28;45228;-44
2021/07/25 07:07:59;;;;;;;;;8.00;6.75;;;;;23.50;52.78;100212.84;5079704;28;46211;-48
2021/07/25 07:10:27;;;;;;;;;5.25;5.25;;;;;23.52;52.53;100210.94;5079157;27;45344;-47
2021/07/25 07:12:54;;;;;;;;;4.00;4.00;;;;;23.56;52.48;100212.38;5079363;28;45356;-47
2021/07/25 07:15:21;;;;;;;;;6.50;6.50;;;;;23.61;52.08;100212.84;5079453;27;45538;-45
2021/07/25 07:17:55;;;;;;;;;7.75;6.75;;;;;23.65;52.00;100216.94;5079105;28;46069;-46
2021/07/25 07:20:21;;;;;;;;;7.25;6.00;;;;;23.69;52.44;100220.19;5079072;28;45493;-47
2021/07/25 07:22:59;;;;;;;;;6.25;6.25;;;;;23.73;51.96;100209.25;5079118;27;45502;-47
2021/07/25 07:25:31;;;;;;;;;7.00;6.50;;;;;23.75;51.65;100215.28;5079025;28;45553;-47
2021/07/25 07:27:56;;;;;;;;;6.50;6.50;;;;;23.78;52.09;100217.66;5078795;28;46187;-46
2021/07/25 07:30:22;;;;;;;;;10.50;6.50;;;;;23.82;51.92;100220.06;5078830;28;45406;-47
2021/07/25 07:32:48;;;;;;;;;7.50;7.50;;;;;23.84;51.86;100215.50;5078898;28;45425;-47
2021/07/25 07:35:13;;;;;;;;;8.75;7.00;;;;;23.86;51.79;100218.88;5079167;27;45367;-47
2021/07/25 07:37:39;;;;;;;;;8.25;7.25;;;;;23.88;51.40;100224.84;5078590;28;45365;-48
2021/07/25 07:40:05;;;;;;;;;8.25;8.25;;;;;23.90;51.70;100215.84;5060409;28;45985;-47
2021/07/25 07:42:31;;;;;;;;;8.75;6.75;;;;;23.91;51.71;100212.25;5093542;27;45452;-50
2021/07/25 07:44:56;;;;;;;;;7.00;7.00;;;;;23.93;51.49;100220.06;5078980;28;45451;-48
2021/07/25 07:47:23;;;;;;;;;7.25;6.50;;;;;23.93;51.64;100223.53;5078704;28;46087;-43
2021/07/25 07:49:49;;;;;;;;;6.00;6.00;;;;;23.94;51.62;100216.44;5078346;27;45245;-47
2021/07/25 07:52:14;;;;;;;;;11.50;8.25;;;;;23.96;51.84;100219.00;5078532;28;45229;-49
2021/07/25 07:54:40;;;;;;;;;6.00;6.00;;;;;23.98;51.78;100219.72;5078824;28;45599;-45
2021/07/25 07:57:05;;;;;;;;;8.25;8.25;;;;;23.97;51.73;100218.03;5078261;28;45880;-49
2021/07/25 07:59:31;;;;;;;;;7.75;6.75;;;;;23.91;52.00;100221.97;5078745;28;45208;-47
2021/07/25 08:01:57;;;;;;;;;9.25;8.00;;;;;23.94;52.17;100221.75;5078482;28;45481;-50
2021/07/25 08:04:23;;;;;;;;;7.00;7.00;;;;;23.93;52.17;100230.63;5078440;27;45461;-46
2021/07/25 08:06:48;;;;;;;;;7.50;6.25;;;;;23.94;52.58;100224.38;5077891;28;53632;-47
2021/07/25 08:09:13;;;;;;;;;10.50;8.75;;;;;23.97;52.21;100231.25;5078229;28;45313;-48
2021/07/25 08:11:46;;;;;;;;;9.50;9.50;;;;;23.96;52.15;100225.13;5078345;28;45399;-45
2021/07/25 08:14:15;;;;;;;;;7.50;6.75;;;;;23.93;52.67;100218.22;5078504;28;45351;-47
2021/07/25 08:16:41;;;;;;;;;7.75;7.00;;;;;23.90;52.59;100228.22;5078119;28;46306;-51
2021/07/25 08:19:07;;;;;;;;;8.50;8.50;;;;;23.89;52.40;100229.19;5078075;28;45419;-47
2021/07/25 08:21:32;;;;;;;;;12.75;10.75;;;;;23.88;52.58;100222.22;5078093;28;45669;-47
2021/07/25 08:23:58;;;;;;;;;9.75;8.25;;;;;23.90;52.61;100220.28;5078135;28;45490;-46
2021/07/25 08:26:23;;;;;;;;;9.25;9.25;;;;;23.92;52.65;100215.72;5077647;28;46308;-48
2021/07/25 08:28:48;;;;;;;;;10.50;10.00;;;;;23.93;52.53;100214.75;5077845;28;45351;-46
2021/07/25 08:31:14;;;;;;;;;9.00;8.75;;;;;23.93;52.53;100217.41;5078060;28;45213;-48
2021/07/25 08:33:39;;;;;;;;;12.00;8.50;;;;;23.95;52.52;100220.81;5077903;28;45481;-45
2021/07/25 08:36:04;;;;;;;;;8.75;8.25;;;;;23.98;52.38;100219.72;5077989;28;45643;-46
2021/07/25 08:38:30;;;;;;;;;8.25;8.25;;;;;24.00;52.00;100221.25;5077717;28;45236;-47
2021/07/25 08:41:14;;;;;;;;;13.50;9.75;;;;;24.05;52.10;100223.53;5077752;27;45419;-46
2021/07/25 08:43:43;;;;;;;;;11.00;8.00;;;;;24.03;52.34;100226.31;5078007;28;45356;-46
2021/07/25 08:46:17;;;;;;;;;13.75;10.50;;;;;24.00;52.06;100223.91;5077583;28;45427;-46
2021/07/25 08:48:50;;;;;;;;;8.25;8.00;;;;;23.99;52.34;100222.22;5077637;28;45795;-43
2021/07/25 08:51:30;;;;;;;;;10.25;10.25;;;;;23.96;52.76;100219.00;5077629;28;45323;-47
2021/07/25 08:53:59;;;;;;;;;14.00;12.00;;;;;23.96;52.35;100219.00;5077315;28;45290;-45
2021/07/25 08:56:27;;;;;;;;;10.50;10.50;;;;;23.98;52.45;100222.34;5077006;28;46187;-45
2021/07/25 08:58:57;;;;;;;;;10.25;9.00;;;;;23.98;52.96;100217.06;5077023;28;45410;-48
2021/07/25 09:01:32;;;;;;;;;8.25;8.00;;;;;23.98;52.88;100222.34;5077244;28;45360;-45
2021/07/25 09:03:58;;;;;;;;;10.00;8.00;;;;;23.98;52.82;100225.84;5077458;28;45753;-45
2021/07/25 09:06:25;;;;;;;;;11.00;8.00;;;;;23.99;53.05;100224.03;5076970;28;46040;-46
2021/07/25 09:08:51;;;;;;;;;9.50;9.50;;;;;23.98;52.96;100225.84;5076945;27;45281;-49
2021/07/25 09:11:18;;;;;;;;;12.00;9.50;;;;;23.99;53.18;100229.34;5058964;28;45330;-49
2021/07/25 09:13:46;;;;;;;;;9.25;7.00;;;;;23.97;53.55;100225.97;5076933;28;45336;-45
2021/07/25 09:16:11;;;;;;;;;11.50;9.25;;;;;23.93;53.46;100225.34;5076749;28;45329;-46
2021/07/25 09:18:37;;;;;;;;;6.75;5.50;;;;;23.89;53.81;100218.59;5076768;28;54924;-46
2021/07/25 09:21:02;;;;;;;;;14.25;8.25;;;;;23.82;54.01;100223.53;5076919;28;45288;-50
2021/07/25 09:23:27;;;;;;;;;8.75;8.75;;;;;23.75;54.55;100228.50;5077076;27;45754;-47
2021/07/25 09:25:56;;;;;;;;;10.00;8.75;;;;;23.71;54.57;100228.84;5076307;28;52605;-43
2021/07/25 09:28:25;;;;;;;;;8.25;8.25;;;;;23.70;54.95;100219.25;5076640;27;45388;-45
2021/07/25 09:30:52;;;;;;;;;10.00;9.00;;;;;23.67;55.33;100232.69;5076907;28;45297;-45
2021/07/25 09:33:23;;;;;;;;;7.50;7.50;;;;;23.66;55.35;100233.66;5076875;27;45463;-47
2021/07/25 09:35:50;;;;;;;;;7.50;7.50;;;;;23.62;55.99;100238.34;5076394;27;46566;-47
2021/07/25 09:38:17;;;;;;;;;8.00;5.50;;;;;23.56;56.13;100230.88;5091766;27;45362;-42
2021/07/25 09:40:44;;;;;;;;;6.25;6.25;;;;;23.49;56.17;100235.81;5076607;28;45213;-45
2021/07/25 09:43:19;;;;;;;;;6.75;5.00;;;;;23.40;56.17;100229.44;5076724;28;45459;-45
2021/07/25 09:45:47;;;;;;;;;6.00;6.00;;;;;23.29;56.20;100237.38;5076517;28;46233;-49
2021/07/25 09:48:13;;;;;;;;;7.25;7.00;;;;;23.20;56.09;100232.78;5076479;28;45339;-50
2021/07/25 09:50:38;;;;;;;;;5.75;5.75;;;;;23.11;56.50;100232.47;5076810;28;45403;-47
2021/07/25 09:53:04;;;;;;;;;6.50;6.50;;;;;23.04;57.03;100233.06;5076311;28;45473;-49
2021/07/25 09:55:31;;;;;;;;;6.75;6.75;;;;;22.98;57.21;100226.47;5075936;28;45509;-48
2021/07/25 09:57:56;;;;;;;;;8.00;6.00;;;;;22.94;57.82;100235.56;5076314;28;45750;-45
2021/07/25 10:00:22;;;;;;;;;8.75;6.50;;;;;22.96;57.76;100231.00;5076379;28;45367;-46
2021/07/25 10:02:49;;;;;;;;;7.50;6.75;;;;;22.96;58.07;100223.09;5076556;28;45687;-46
2021/07/25 10:05:19;;;;;;;;;7.00;6.00;;;;;22.98;57.68;100223.81;5075240;28;46445;-43
2021/07/25 10:07:48;;;;;;;;;7.25;7.25;;;;;22.99;57.78;100221.03;5092103;27;45353;-47
2021/07/25 10:10:16;;;;;;;;;6.75;6.75;;;;;22.98;57.58;100215.88;5076538;28;45296;-45
2021/07/25 10:12:44;;;;;;;;;5.00;5.00;;;;;23.01;57.69;100219.13;5076455;28;45419;-46
2021/07/25 10:15:14;;;;;;;;;7.50;6.50;;;;;23.04;57.84;100209.28;5076333;28;45979;-44
2021/07/25 10:17:42;;;;;;;;;8.00;8.00;;;;;23.08;57.84;100198.38;5076367;28;45245;-46
2021/07/25 10:20:10;;;;;;;;;8.25;8.25;;;;;23.16;57.82;100210.97;5076584;28;45471;-47
2021/07/25 10:22:38;;;;;;;;;10.25;8.00;;;;;23.19;57.65;100200.19;5057986;28;45509;-49
2021/07/25 10:25:08;;;;;;;;;8.75;8.75;;;;;23.29;58.03;100214.41;5076008;28;46610;-46
2021/07/25 10:27:39;;;;;;;;;11.25;10.25;;;;;23.36;57.51;100196.25;5076153;28;45857;-51
2021/07/25 10:30:08;;;;;;;;;8.50;8.00;;;;;23.44;57.20;100196.50;5092046;27;45369;-48
2021/07/25 10:32:37;;;;;;;;;10.75;8.00;;;;;23.49;57.09;100188.19;5076257;28;45524;-52
2021/07/25 10:35:04;;;;;;;;;11.00;9.00;;;;;23.55;56.78;100192.16;5075933;27;45287;-46
2021/07/25 10:37:32;;;;;;;;;9.00;9.00;;;;;23.61;56.67;100187.25;5076007;27;45665;-53
2021/07/25 10:40:00;;;;;;;;;10.50;9.75;;;;;23.68;56.15;100195.53;5076169;28;45462;-49
2021/07/25 10:42:27;;;;;;;;;11.00;10.00;;;;;23.71;56.36;100194.44;5076440;27;45435;-51
2021/07/25 10:44:53;;;;;;;;;12.75;9.00;;;;;23.74;55.97;100194.19;5075829;27;46075;-50
2021/07/25 10:47:18;;;;;;;;;7.00;7.00;;;;;23.76;55.76;100193.09;5075952;28;45288;-51
2021/07/25 10:49:44;;;;;;;;;6.67;6.00;;;;;23.80;55.36;100185.78;5076044;28;45294;-49
2021/07/25 10:52:09;;;;;;;;;6.75;6.25;;;;;23.83;55.33;100187.34;5076267;28;45331;-47
2021/07/25 10:54:45;;;;;;;;;8.50;8.00;;;;;23.85;55.41;100185.44;5075673;28;46188;-44
2021/07/25 10:57:10;;;;;;;;;10.25;8.25;;;;;23.88;54.99;100171.94;5076087;27;45308;-49
2021/07/25 10:59:45;;;;;;;;;7.00;6.75;;;;;23.91;55.19;100172.56;5076015;28;45316;-50
2021/07/25 11:02:33;;;;;;;;;9.75;9.75;;;;;23.98;54.69;100180.00;5076370;28;45256;-44
2021/07/25 11:04:58;;;;;;;;;8.50;8.50;;;;;24.02;54.64;100179.63;5075692;28;47138;-50
2021/07/25 11:07:23;;;;;;;;;11.67;10.67;;;;;24.05;54.73;100182.03;5075695;28;45865;-50
2021/07/25 11:09:59;;;;;;;;;12.67;9.00;;;;;24.06;54.45;100178.44;5075529;28;45465;-47
2021/07/25 11:12:25;;;;;;;;;11.25;9.00;;;;;24.06;54.33;100177.56;5075708;28;45400;-47
2021/07/25 11:14:59;;;;;;;;;12.00;9.25;;;;;24.06;54.05;100181.09;5075433;28;46335;-48
2021/07/25 11:17:45;;;;;;;;;10.50;10.50;;;;;24.08;53.86;100171.22;5077917;28;45910;-50
2021/07/25 11:20:32;;;;;;;;;9.25;7.75;;;;;24.06;53.88;100175.78;5079342;28;45385;-48
2021/07/25 11:22:59;;;;;;;;;8.00;7.00;;;;;24.05;53.69;100173.25;5079247;28;45540;-48
2021/07/25 11:25:33;;;;;;;;;13.25;10.00;;;;;24.04;54.34;100172.41;5078811;28;45372;-46